sensor_id;sensor_type;location;lat;lon;timestamp;P1;durP1;ratioP1;P2;durP2;ratioP2
68653;SDS011;55636;51.108;13.622;2023-05-23T00:00:20;5.60;;;4.50;;
68653;SDS011;55636;51.108;13.622;2023-05-23T00:01:23;5.07;;;4.60;;
68653;SDS011;55636;51.108;13.622;2023-05-23T00:02:26;5.40;;;4.50;;
68653;SDS011;55636;51.108;13.622;2023-05-23T00:03:30;5.20;;;4.45;;
68653;SDS011;55636;51.108;13.622;2023-05-23T00:04:32;5.78;;;4.90;;
68653;SDS011;55636;51.108;13.622;2023-05-23T00:05:37;5.35;;;4.50;;
68653;SDS011;55636;51.108;13.622;2023-05-23T00:06:39;6.05;;;4.90;;
68653;SDS011;55636;51.108;13.622;2023-05-23T00:07:45;5.60;;;4.47;;
68653;SDS011;55636;51.108;13.622;2023-05-23T00:08:48;6.85;;;4.80;;
68653;SDS011;55636;51.108;13.622;2023-05-23T00:09:51;5.47;;;4.97;;
68653;SDS011;55636;51.108;13.622;2023-05-23T00:10:53;5.63;;;4.95;;
68653;SDS011;55636;51.108;13.622;2023-05-23T00:11:56;6.63;;;5.13;;
68653;SDS011;55636;51.108;13.622;2023-05-23T00:12:58;7.05;;;4.80;;
68653;SDS011;55636;51.108;13.622;2023-05-23T00:14:01;6.88;;;5.20;;
68653;SDS011;55636;51.108;13.622;2023-05-23T00:15:04;6.57;;;5.35;;
68653;SDS011;55636;51.108;13.622;2023-05-23T00:16:09;6.18;;;4.80;;
68653;SDS011;55636;51.108;13.622;2023-05-23T00:17:11;7.25;;;5.20;;
68653;SDS011;55636;51.108;13.622;2023-05-23T00:18:13;6.97;;;5.35;;
68653;SDS011;55636;51.108;13.622;2023-05-23T00:19:17;5.53;;;4.93;;
68653;SDS011;55636;51.108;13.622;2023-05-23T00:20:19;5.55;;;4.80;;
68653;SDS011;55636;51.108;13.622;2023-05-23T00:21:22;5.88;;;5.07;;
68653;SDS011;55636;51.108;13.622;2023-05-23T00:22:25;6.80;;;4.75;;
68653;SDS011;55636;51.108;13.622;2023-05-23T00:23:29;7.53;;;5.30;;
68653;SDS011;55636;51.108;13.622;2023-05-23T00:24:31;6.95;;;5.28;;
68653;SDS011;55636;51.108;13.622;2023-05-23T00:25:33;7.32;;;5.45;;
68653;SDS011;55636;51.108;13.622;2023-05-23T00:26:36;6.47;;;5.72;;
68653;SDS011;55636;51.108;13.622;2023-05-23T00:27:39;6.03;;;5.18;;
68653;SDS011;55636;51.108;13.622;2023-05-23T00:28:42;6.82;;;5.10;;
68653;SDS011;55636;51.108;13.622;2023-05-23T00:29:46;6.18;;;5.15;;
68653;SDS011;55636;51.108;13.622;2023-05-23T00:30:49;6.20;;;5.35;;
68653;SDS011;55636;51.108;13.622;2023-05-23T00:31:51;5.53;;;5.03;;
68653;SDS011;55636;51.108;13.622;2023-05-23T00:32:54;6.13;;;5.20;;
68653;SDS011;55636;51.108;13.622;2023-05-23T00:33:56;6.25;;;5.30;;
68653;SDS011;55636;51.108;13.622;2023-05-23T00:34:59;8.07;;;5.80;;
68653;SDS011;55636;51.108;13.622;2023-05-23T00:36:01;6.93;;;5.80;;
68653;SDS011;55636;51.108;13.622;2023-05-23T00:37:04;6.80;;;5.45;;
68653;SDS011;55636;51.108;13.622;2023-05-23T00:38:06;7.10;;;5.47;;
68653;SDS011;55636;51.108;13.622;2023-05-23T00:39:09;8.05;;;5.68;;
68653;SDS011;55636;51.108;13.622;2023-05-23T00:40:21;8.30;;;5.65;;
68653;SDS011;55636;51.108;13.622;2023-05-23T00:41:24;6.82;;;5.20;;
68653;SDS011;55636;51.108;13.622;2023-05-23T00:42:28;7.15;;;5.57;;
68653;SDS011;55636;51.108;13.622;2023-05-23T00:43:30;7.30;;;4.68;;
68653;SDS011;55636;51.108;13.622;2023-05-23T00:44:33;7.78;;;5.80;;
68653;SDS011;55636;51.108;13.622;2023-05-23T00:45:35;5.75;;;5.15;;
68653;SDS011;55636;51.108;13.622;2023-05-23T00:46:38;5.97;;;5.35;;
68653;SDS011;55636;51.108;13.622;2023-05-23T00:47:42;8.20;;;5.35;;
68653;SDS011;55636;51.108;13.622;2023-05-23T00:48:46;6.07;;;5.38;;
68653;SDS011;55636;51.108;13.622;2023-05-23T00:49:48;5.40;;;4.90;;
68653;SDS011;55636;51.108;13.622;2023-05-23T00:50:51;5.75;;;5.15;;
68653;SDS011;55636;51.108;13.622;2023-05-23T00:51:54;6.40;;;5.40;;
68653;SDS011;55636;51.108;13.622;2023-05-23T00:52:57;5.95;;;4.88;;
68653;SDS011;55636;51.108;13.622;2023-05-23T00:54:03;5.10;;;4.57;;
68653;SDS011;55636;51.108;13.622;2023-05-23T00:55:06;5.57;;;4.57;;
68653;SDS011;55636;51.108;13.622;2023-05-23T00:56:09;4.05;;;3.67;;
68653;SDS011;55636;51.108;13.622;2023-05-23T00:57:13;5.15;;;4.10;;
68653;SDS011;55636;51.108;13.622;2023-05-23T00:58:15;5.47;;;4.07;;
68653;SDS011;55636;51.108;13.622;2023-05-23T00:59:18;4.40;;;4.00;;
68653;SDS011;55636;51.108;13.622;2023-05-23T01:00:25;5.28;;;3.78;;
68653;SDS011;55636;51.108;13.622;2023-05-23T01:01:28;4.40;;;4.00;;
68653;SDS011;55636;51.108;13.622;2023-05-23T01:02:31;4.43;;;4.00;;
68653;SDS011;55636;51.108;13.622;2023-05-23T01:03:37;5.10;;;4.10;;
68653;SDS011;55636;51.108;13.622;2023-05-23T01:04:40;4.63;;;3.65;;
68653;SDS011;55636;51.108;13.622;2023-05-23T01:05:43;4.50;;;4.07;;
68653;SDS011;55636;51.108;13.622;2023-05-23T01:06:46;5.82;;;4.00;;
68653;SDS011;55636;51.108;13.622;2023-05-23T01:07:50;4.45;;;4.05;;
68653;SDS011;55636;51.108;13.622;2023-05-23T01:08:53;4.38;;;3.97;;
68653;SDS011;55636;51.108;13.622;2023-05-23T01:09:55;4.53;;;4.13;;
68653;SDS011;55636;51.108;13.622;2023-05-23T01:10:59;5.03;;;4.53;;
68653;SDS011;55636;51.108;13.622;2023-05-23T01:13:46;4.55;;;4.15;;
68653;SDS011;55636;51.108;13.622;2023-05-23T01:15:14;4.82;;;4.13;;
68653;SDS011;55636;51.108;13.622;2023-05-23T01:16:24;5.50;;;4.22;;
68653;SDS011;55636;51.108;13.622;2023-05-23T01:18:53;6.15;;;4.28;;
68653;SDS011;55636;51.108;13.622;2023-05-23T01:20:06;5.63;;;4.35;;
68653;SDS011;55636;51.108;13.622;2023-05-23T01:21:14;5.30;;;4.40;;
68653;SDS011;55636;51.108;13.622;2023-05-23T01:22:35;4.60;;;4.20;;
68653;SDS011;55636;51.108;13.622;2023-05-23T01:25:38;4.60;;;4.20;;
68653;SDS011;55636;51.108;13.622;2023-05-23T01:28:06;4.90;;;4.32;;
68653;SDS011;55636;51.108;13.622;2023-05-23T01:29:14;4.30;;;3.90;;
68653;SDS011;55636;51.108;13.622;2023-05-23T01:30:31;5.13;;;4.60;;
68653;SDS011;55636;51.108;13.622;2023-05-23T01:31:38;7.30;;;4.30;;
68653;SDS011;55636;51.108;13.622;2023-05-23T01:32:46;6.75;;;5.10;;
68653;SDS011;55636;51.108;13.622;2023-05-23T01:33:50;5.10;;;4.00;;
68653;SDS011;55636;51.108;13.622;2023-05-23T01:34:54;6.07;;;4.43;;
68653;SDS011;55636;51.108;13.622;2023-05-23T01:35:58;7.03;;;4.35;;
68653;SDS011;55636;51.108;13.622;2023-05-23T01:37:07;7.15;;;4.40;;
68653;SDS011;55636;51.108;13.622;2023-05-23T01:38:10;9.32;;;4.60;;
68653;SDS011;55636;51.108;13.622;2023-05-23T01:39:13;5.72;;;4.30;;
68653;SDS011;55636;51.108;13.622;2023-05-23T01:40:15;7.22;;;4.38;;
68653;SDS011;55636;51.108;13.622;2023-05-23T01:41:18;6.45;;;4.60;;
68653;SDS011;55636;51.108;13.622;2023-05-23T01:42:20;5.15;;;4.35;;
68653;SDS011;55636;51.108;13.622;2023-05-23T01:43:23;5.03;;;4.43;;
68653;SDS011;55636;51.108;13.622;2023-05-23T01:44:26;8.68;;;4.82;;
68653;SDS011;55636;51.108;13.622;2023-05-23T01:45:29;4.82;;;4.30;;
68653;SDS011;55636;51.108;13.622;2023-05-23T01:46:32;5.60;;;4.28;;
68653;SDS011;55636;51.108;13.622;2023-05-23T01:47:37;7.38;;;4.15;;
68653;SDS011;55636;51.108;13.622;2023-05-23T01:48:42;6.25;;;4.40;;
68653;SDS011;55636;51.108;13.622;2023-05-23T01:49:46;4.68;;;4.25;;
68653;SDS011;55636;51.108;13.622;2023-05-23T01:50:49;5.72;;;3.72;;
68653;SDS011;55636;51.108;13.622;2023-05-23T01:51:52;5.05;;;3.95;;
68653;SDS011;55636;51.108;13.622;2023-05-23T01:52:55;4.40;;;4.00;;
68653;SDS011;55636;51.108;13.622;2023-05-23T01:53:58;3.90;;;3.50;;
68653;SDS011;55636;51.108;13.622;2023-05-23T01:55:02;4.97;;;3.83;;
68653;SDS011;55636;51.108;13.622;2023-05-23T01:56:11;4.60;;;3.58;;
68653;SDS011;55636;51.108;13.622;2023-05-23T01:57:14;5.03;;;3.75;;
68653;SDS011;55636;51.108;13.622;2023-05-23T01:58:17;4.15;;;3.45;;
68653;SDS011;55636;51.108;13.622;2023-05-23T01:59:20;5.53;;;3.90;;
68653;SDS011;55636;51.108;13.622;2023-05-23T02:00:22;4.80;;;3.90;;
68653;SDS011;55636;51.108;13.622;2023-05-23T02:01:25;4.50;;;3.75;;
68653;SDS011;55636;51.108;13.622;2023-05-23T02:02:28;3.72;;;3.42;;
68653;SDS011;55636;51.108;13.622;2023-05-23T02:03:31;5.32;;;4.07;;
68653;SDS011;55636;51.108;13.622;2023-05-23T02:04:34;5.22;;;4.57;;
68653;SDS011;55636;51.108;13.622;2023-05-23T02:05:36;5.57;;;4.57;;
68653;SDS011;55636;51.108;13.622;2023-05-23T02:06:39;7.25;;;5.15;;
68653;SDS011;55636;51.108;13.622;2023-05-23T02:07:46;5.53;;;4.93;;
68653;SDS011;55636;51.108;13.622;2023-05-23T02:08:51;5.63;;;4.60;;
68653;SDS011;55636;51.108;13.622;2023-05-23T02:09:53;6.18;;;4.82;;
68653;SDS011;55636;51.108;13.622;2023-05-23T02:10:57;6.32;;;5.20;;
68653;SDS011;55636;51.108;13.622;2023-05-23T02:11:59;6.95;;;5.13;;
68653;SDS011;55636;51.108;13.622;2023-05-23T02:13:02;7.20;;;5.40;;
68653;SDS011;55636;51.108;13.622;2023-05-23T02:14:05;6.40;;;5.75;;
68653;SDS011;55636;51.108;13.622;2023-05-23T02:15:08;6.00;;;5.13;;
68653;SDS011;55636;51.108;13.622;2023-05-23T02:16:10;8.93;;;5.90;;
68653;SDS011;55636;51.108;13.622;2023-05-23T02:17:15;7.25;;;6.20;;
68653;SDS011;55636;51.108;13.622;2023-05-23T02:18:18;8.18;;;6.32;;
68653;SDS011;55636;51.108;13.622;2023-05-23T02:19:24;7.53;;;6.57;;
68653;SDS011;55636;51.108;13.622;2023-05-23T02:20:28;8.75;;;6.82;;
68653;SDS011;55636;51.108;13.622;2023-05-23T02:21:30;9.05;;;6.75;;
68653;SDS011;55636;51.108;13.622;2023-05-23T02:22:37;8.13;;;6.68;;
68653;SDS011;55636;51.108;13.622;2023-05-23T02:23:40;7.63;;;6.55;;
68653;SDS011;55636;51.108;13.622;2023-05-23T02:24:42;9.68;;;6.63;;
68653;SDS011;55636;51.108;13.622;2023-05-23T02:25:47;8.82;;;6.93;;
68653;SDS011;55636;51.108;13.622;2023-05-23T02:26:49;8.35;;;6.68;;
68653;SDS011;55636;51.108;13.622;2023-05-23T02:27:52;8.68;;;6.80;;
68653;SDS011;55636;51.108;13.622;2023-05-23T02:28:55;8.55;;;7.63;;
68653;SDS011;55636;51.108;13.622;2023-05-23T02:29:58;7.68;;;6.70;;
68653;SDS011;55636;51.108;13.622;2023-05-23T02:31:01;10.27;;;6.82;;
68653;SDS011;55636;51.108;13.622;2023-05-23T02:32:04;11.10;;;7.05;;
68653;SDS011;55636;51.108;13.622;2023-05-23T02:33:07;7.93;;;6.57;;
68653;SDS011;55636;51.108;13.622;2023-05-23T02:34:10;8.82;;;6.72;;
68653;SDS011;55636;51.108;13.622;2023-05-23T02:35:12;8.05;;;7.05;;
68653;SDS011;55636;51.108;13.622;2023-05-23T02:36:15;9.48;;;7.60;;
68653;SDS011;55636;51.108;13.622;2023-05-23T02:37:17;8.57;;;6.88;;
68653;SDS011;55636;51.108;13.622;2023-05-23T02:38:20;10.20;;;6.63;;
68653;SDS011;55636;51.108;13.622;2023-05-23T02:39:22;10.55;;;6.70;;
68653;SDS011;55636;51.108;13.622;2023-05-23T02:40:25;7.97;;;7.18;;
68653;SDS011;55636;51.108;13.622;2023-05-23T02:41:29;8.95;;;6.45;;
68653;SDS011;55636;51.108;13.622;2023-05-23T02:42:32;8.98;;;6.97;;
68653;SDS011;55636;51.108;13.622;2023-05-23T02:43:35;7.85;;;6.82;;
68653;SDS011;55636;51.108;13.622;2023-05-23T02:44:39;7.57;;;6.78;;
68653;SDS011;55636;51.108;13.622;2023-05-23T02:45:41;9.48;;;6.70;;
68653;SDS011;55636;51.108;13.622;2023-05-23T02:46:44;7.38;;;6.68;;
68653;SDS011;55636;51.108;13.622;2023-05-23T02:47:47;9.20;;;6.93;;
68653;SDS011;55636;51.108;13.622;2023-05-23T02:48:50;7.95;;;7.07;;
68653;SDS011;55636;51.108;13.622;2023-05-23T02:49:52;8.55;;;6.82;;
68653;SDS011;55636;51.108;13.622;2023-05-23T02:50:54;8.68;;;6.47;;
68653;SDS011;55636;51.108;13.622;2023-05-23T02:51:57;7.43;;;6.63;;
68653;SDS011;55636;51.108;13.622;2023-05-23T02:52:59;7.57;;;6.85;;
68653;SDS011;55636;51.108;13.622;2023-05-23T02:54:02;8.10;;;6.43;;
68653;SDS011;55636;51.108;13.622;2023-05-23T02:55:08;8.50;;;6.70;;
68653;SDS011;55636;51.108;13.622;2023-05-23T02:56:16;7.70;;;6.82;;
68653;SDS011;55636;51.108;13.622;2023-05-23T02:57:19;7.65;;;6.47;;
68653;SDS011;55636;51.108;13.622;2023-05-23T02:58:22;8.10;;;7.13;;
68653;SDS011;55636;51.108;13.622;2023-05-23T02:59:25;6.85;;;6.15;;
68653;SDS011;55636;51.108;13.622;2023-05-23T03:00:28;8.73;;;6.78;;
68653;SDS011;55636;51.108;13.622;2023-05-23T03:01:31;8.63;;;6.22;;
68653;SDS011;55636;51.108;13.622;2023-05-23T03:02:34;9.25;;;6.70;;
68653;SDS011;55636;51.108;13.622;2023-05-23T03:03:36;7.03;;;6.28;;
68653;SDS011;55636;51.108;13.622;2023-05-23T03:04:39;7.45;;;6.22;;
68653;SDS011;55636;51.108;13.622;2023-05-23T03:05:42;8.80;;;6.60;;
68653;SDS011;55636;51.108;13.622;2023-05-23T03:06:45;7.10;;;6.32;;
68653;SDS011;55636;51.108;13.622;2023-05-23T03:07:48;7.20;;;6.50;;
68653;SDS011;55636;51.108;13.622;2023-05-23T03:08:53;7.35;;;6.28;;
68653;SDS011;55636;51.108;13.622;2023-05-23T03:09:56;7.65;;;6.40;;
68653;SDS011;55636;51.108;13.622;2023-05-23T03:10:58;7.38;;;6.10;;
68653;SDS011;55636;51.108;13.622;2023-05-23T03:12:01;7.55;;;5.82;;
68653;SDS011;55636;51.108;13.622;2023-05-23T03:13:04;7.75;;;5.90;;
68653;SDS011;55636;51.108;13.622;2023-05-23T03:14:07;7.15;;;6.45;;
68653;SDS011;55636;51.108;13.622;2023-05-23T03:15:09;7.50;;;6.78;;
68653;SDS011;55636;51.108;13.622;2023-05-23T03:16:15;6.70;;;6.03;;
68653;SDS011;55636;51.108;13.622;2023-05-23T03:17:18;7.43;;;5.95;;
68653;SDS011;55636;51.108;13.622;2023-05-23T03:18:20;6.32;;;5.72;;
68653;SDS011;55636;51.108;13.622;2023-05-23T03:19:23;7.18;;;6.32;;
68653;SDS011;55636;51.108;13.622;2023-05-23T03:20:27;7.47;;;6.05;;
68653;SDS011;55636;51.108;13.622;2023-05-23T03:21:30;8.20;;;6.25;;
68653;SDS011;55636;51.108;13.622;2023-05-23T03:22:34;6.75;;;5.95;;
68653;SDS011;55636;51.108;13.622;2023-05-23T03:23:37;7.53;;;5.82;;
68653;SDS011;55636;51.108;13.622;2023-05-23T03:24:40;7.50;;;6.35;;
68653;SDS011;55636;51.108;13.622;2023-05-23T03:25:42;6.95;;;6.25;;
68653;SDS011;55636;51.108;13.622;2023-05-23T03:26:46;6.72;;;6.03;;
68653;SDS011;55636;51.108;13.622;2023-05-23T03:27:48;6.45;;;5.57;;
68653;SDS011;55636;51.108;13.622;2023-05-23T03:28:51;6.80;;;6.10;;
68653;SDS011;55636;51.108;13.622;2023-05-23T03:29:54;6.90;;;5.82;;
68653;SDS011;55636;51.108;13.622;2023-05-23T03:30:57;7.03;;;6.10;;
68653;SDS011;55636;51.108;13.622;2023-05-23T03:31:59;7.35;;;6.50;;
68653;SDS011;55636;51.108;13.622;2023-05-23T03:33:02;7.32;;;5.78;;
68653;SDS011;55636;51.108;13.622;2023-05-23T03:34:05;6.85;;;5.80;;
68653;SDS011;55636;51.108;13.622;2023-05-23T03:35:08;7.10;;;6.07;;
68653;SDS011;55636;51.108;13.622;2023-05-23T03:36:11;6.25;;;5.65;;
68653;SDS011;55636;51.108;13.622;2023-05-23T03:37:13;6.53;;;5.80;;
68653;SDS011;55636;51.108;13.622;2023-05-23T03:38:16;6.45;;;5.85;;
68653;SDS011;55636;51.108;13.622;2023-05-23T03:39:18;7.07;;;6.38;;
68653;SDS011;55636;51.108;13.622;2023-05-23T03:40:21;6.95;;;6.00;;
68653;SDS011;55636;51.108;13.622;2023-05-23T03:41:24;6.97;;;5.97;;
68653;SDS011;55636;51.108;13.622;2023-05-23T03:42:28;6.88;;;6.20;;
68653;SDS011;55636;51.108;13.622;2023-05-23T03:43:33;6.63;;;5.90;;
68653;SDS011;55636;51.108;13.622;2023-05-23T03:44:35;7.53;;;6.25;;
68653;SDS011;55636;51.108;13.622;2023-05-23T03:45:40;6.78;;;5.55;;
68653;SDS011;55636;51.108;13.622;2023-05-23T03:46:47;6.85;;;6.00;;
68653;SDS011;55636;51.108;13.622;2023-05-23T03:47:51;6.45;;;5.63;;
68653;SDS011;55636;51.108;13.622;2023-05-23T03:48:53;6.30;;;5.65;;
68653;SDS011;55636;51.108;13.622;2023-05-23T03:49:57;9.65;;;5.70;;
68653;SDS011;55636;51.108;13.622;2023-05-23T03:51:01;6.40;;;5.72;;
68653;SDS011;55636;51.108;13.622;2023-05-23T03:52:04;6.18;;;5.63;;
68653;SDS011;55636;51.108;13.622;2023-05-23T03:53:08;6.57;;;5.60;;
68653;SDS011;55636;51.108;13.622;2023-05-23T03:54:11;6.30;;;5.70;;
68653;SDS011;55636;51.108;13.622;2023-05-23T03:55:14;7.18;;;5.57;;
68653;SDS011;55636;51.108;13.622;2023-05-23T03:56:18;6.72;;;6.03;;
68653;SDS011;55636;51.108;13.622;2023-05-23T03:57:21;6.38;;;5.72;;
68653;SDS011;55636;51.108;13.622;2023-05-23T03:58:25;7.05;;;6.03;;
68653;SDS011;55636;51.108;13.622;2023-05-23T03:59:32;6.40;;;5.80;;
68653;SDS011;55636;51.108;13.622;2023-05-23T04:00:37;7.10;;;6.35;;
68653;SDS011;55636;51.108;13.622;2023-05-23T04:01:41;7.35;;;6.10;;
68653;SDS011;55636;51.108;13.622;2023-05-23T04:02:44;7.28;;;6.25;;
68653;SDS011;55636;51.108;13.622;2023-05-23T04:03:51;6.80;;;6.15;;
68653;SDS011;55636;51.108;13.622;2023-05-23T04:04:55;6.65;;;5.93;;
68653;SDS011;55636;51.108;13.622;2023-05-23T04:05:59;6.93;;;6.18;;
68653;SDS011;55636;51.108;13.622;2023-05-23T04:07:02;6.70;;;6.00;;
68653;SDS011;55636;51.108;13.622;2023-05-23T04:08:07;6.53;;;5.93;;
68653;SDS011;55636;51.108;13.622;2023-05-23T04:09:09;6.90;;;6.20;;
68653;SDS011;55636;51.108;13.622;2023-05-23T04:10:15;6.82;;;5.95;;
68653;SDS011;55636;51.108;13.622;2023-05-23T04:11:19;6.72;;;5.82;;
68653;SDS011;55636;51.108;13.622;2023-05-23T04:12:23;8.02;;;6.53;;
68653;SDS011;55636;51.108;13.622;2023-05-23T04:13:26;6.57;;;5.88;;
68653;SDS011;55636;51.108;13.622;2023-05-23T04:14:29;7.30;;;6.60;;
68653;SDS011;55636;51.108;13.622;2023-05-23T04:15:34;8.02;;;6.28;;
68653;SDS011;55636;51.108;13.622;2023-05-23T04:16:41;7.70;;;6.90;;
68653;SDS011;55636;51.108;13.622;2023-05-23T04:17:43;7.70;;;7.00;;
68653;SDS011;55636;51.108;13.622;2023-05-23T04:18:46;7.82;;;7.03;;
68653;SDS011;55636;51.108;13.622;2023-05-23T04:19:49;7.45;;;6.70;;
68653;SDS011;55636;51.108;13.622;2023-05-23T04:20:53;7.93;;;7.13;;
68653;SDS011;55636;51.108;13.622;2023-05-23T04:21:55;8.13;;;6.68;;
68653;SDS011;55636;51.108;13.622;2023-05-23T04:22:58;7.57;;;6.78;;
68653;SDS011;55636;51.108;13.622;2023-05-23T04:24:01;7.82;;;6.75;;
68653;SDS011;55636;51.108;13.622;2023-05-23T04:25:05;6.97;;;6.22;;
68653;SDS011;55636;51.108;13.622;2023-05-23T04:26:12;7.93;;;7.13;;
68653;SDS011;55636;51.108;13.622;2023-05-23T04:27:21;9.70;;;7.32;;
68653;SDS011;55636;51.108;13.622;2023-05-23T04:28:27;7.47;;;6.78;;
68653;SDS011;55636;51.108;13.622;2023-05-23T04:29:30;9.48;;;7.30;;
68653;SDS011;55636;51.108;13.622;2023-05-23T04:30:35;8.98;;;7.28;;
68653;SDS011;55636;51.108;13.622;2023-05-23T04:31:38;8.80;;;7.10;;
68653;SDS011;55636;51.108;13.622;2023-05-23T04:32:40;7.63;;;6.57;;
68653;SDS011;55636;51.108;13.622;2023-05-23T04:33:44;7.63;;;6.82;;
68653;SDS011;55636;51.108;13.622;2023-05-23T04:34:47;7.80;;;6.90;;
68653;SDS011;55636;51.108;13.622;2023-05-23T04:35:49;7.18;;;6.57;;
68653;SDS011;55636;51.108;13.622;2023-05-23T04:36:52;7.63;;;6.85;;
68653;SDS011;55636;51.108;13.622;2023-05-23T04:37:55;8.15;;;7.35;;
68653;SDS011;55636;51.108;13.622;2023-05-23T04:39:01;7.65;;;6.88;;
68653;SDS011;55636;51.108;13.622;2023-05-23T04:40:06;7.72;;;6.80;;
68653;SDS011;55636;51.108;13.622;2023-05-23T04:41:36;7.50;;;6.80;;
68653;SDS011;55636;51.108;13.622;2023-05-23T04:43:05;7.47;;;6.75;;
68653;SDS011;55636;51.108;13.622;2023-05-23T04:44:26;7.60;;;6.53;;
68653;SDS011;55636;51.108;13.622;2023-05-23T04:45:46;7.68;;;6.18;;
68653;SDS011;55636;51.108;13.622;2023-05-23T04:47:09;8.57;;;6.88;;
68653;SDS011;55636;51.108;13.622;2023-05-23T04:48:31;6.55;;;5.95;;
68653;SDS011;55636;51.108;13.622;2023-05-23T04:49:36;6.70;;;5.95;;
68653;SDS011;55636;51.108;13.622;2023-05-23T04:50:39;6.93;;;6.22;;
68653;SDS011;55636;51.108;13.622;2023-05-23T04:51:42;7.18;;;6.07;;
68653;SDS011;55636;51.108;13.622;2023-05-23T04:52:51;6.00;;;5.50;;
68653;SDS011;55636;51.108;13.622;2023-05-23T04:53:54;6.28;;;5.68;;
68653;SDS011;55636;51.108;13.622;2023-05-23T04:54:57;6.50;;;5.45;;
68653;SDS011;55636;51.108;13.622;2023-05-23T04:55:59;7.43;;;5.65;;
68653;SDS011;55636;51.108;13.622;2023-05-23T04:57:03;7.60;;;5.78;;
68653;SDS011;55636;51.108;13.622;2023-05-23T04:58:07;6.80;;;5.93;;
68653;SDS011;55636;51.108;13.622;2023-05-23T04:59:10;6.47;;;5.60;;
68653;SDS011;55636;51.108;13.622;2023-05-23T05:00:12;5.60;;;5.10;;
68653;SDS011;55636;51.108;13.622;2023-05-23T05:01:15;5.78;;;5.20;;
68653;SDS011;55636;51.108;13.622;2023-05-23T05:02:18;5.60;;;5.10;;
68653;SDS011;55636;51.108;13.622;2023-05-23T05:03:20;6.13;;;5.50;;
68653;SDS011;55636;51.108;13.622;2023-05-23T05:04:26;6.28;;;5.72;;
68653;SDS011;55636;51.108;13.622;2023-05-23T05:05:29;6.55;;;5.95;;
68653;SDS011;55636;51.108;13.622;2023-05-23T05:06:31;6.43;;;5.50;;
68653;SDS011;55636;51.108;13.622;2023-05-23T05:07:34;6.25;;;5.68;;
68653;SDS011;55636;51.108;13.622;2023-05-23T05:08:37;6.10;;;5.50;;
68653;SDS011;55636;51.108;13.622;2023-05-23T05:09:42;6.82;;;6.00;;
68653;SDS011;55636;51.108;13.622;2023-05-23T05:10:45;5.97;;;5.47;;
68653;SDS011;55636;51.108;13.622;2023-05-23T05:11:49;6.82;;;5.80;;
68653;SDS011;55636;51.108;13.622;2023-05-23T05:12:53;6.28;;;5.53;;
68653;SDS011;55636;51.108;13.622;2023-05-23T05:13:56;8.40;;;6.20;;
68653;SDS011;55636;51.108;13.622;2023-05-23T05:14:58;6.40;;;5.80;;
68653;SDS011;55636;51.108;13.622;2023-05-23T05:16:02;6.40;;;5.80;;
68653;SDS011;55636;51.108;13.622;2023-05-23T05:17:04;7.60;;;6.32;;
68653;SDS011;55636;51.108;13.622;2023-05-23T05:18:15;6.80;;;6.13;;
68653;SDS011;55636;51.108;13.622;2023-05-23T05:19:19;6.93;;;6.20;;
68653;SDS011;55636;51.108;13.622;2023-05-23T05:20:22;7.07;;;6.38;;
68653;SDS011;55636;51.108;13.622;2023-05-23T05:21:25;7.22;;;6.53;;
68653;SDS011;55636;51.108;13.622;2023-05-23T05:22:28;7.18;;;6.47;;
68653;SDS011;55636;51.108;13.622;2023-05-23T05:23:31;7.25;;;6.57;;
68653;SDS011;55636;51.108;13.622;2023-05-23T05:24:34;8.55;;;7.38;;
68653;SDS011;55636;51.108;13.622;2023-05-23T05:25:36;7.93;;;7.13;;
68653;SDS011;55636;51.108;13.622;2023-05-23T05:26:39;8.50;;;7.60;;
68653;SDS011;55636;51.108;13.622;2023-05-23T05:27:41;8.18;;;7.47;;
68653;SDS011;55636;51.108;13.622;2023-05-23T05:28:47;7.97;;;7.18;;
68653;SDS011;55636;51.108;13.622;2023-05-23T05:29:49;8.23;;;7.45;;
68653;SDS011;55636;51.108;13.622;2023-05-23T05:30:52;8.07;;;7.28;;
68653;SDS011;55636;51.108;13.622;2023-05-23T05:31:56;8.75;;;7.95;;
68653;SDS011;55636;51.108;13.622;2023-05-23T05:33:02;8.73;;;7.85;;
68653;SDS011;55636;51.108;13.622;2023-05-23T05:34:05;9.07;;;8.15;;
68653;SDS011;55636;51.108;13.622;2023-05-23T05:35:08;8.52;;;7.72;;
68653;SDS011;55636;51.108;13.622;2023-05-23T05:36:11;9.13;;;8.30;;
68653;SDS011;55636;51.108;13.622;2023-05-23T05:37:17;9.25;;;8.20;;
68653;SDS011;55636;51.108;13.622;2023-05-23T05:38:19;8.68;;;7.93;;
68653;SDS011;55636;51.108;13.622;2023-05-23T05:39:22;8.60;;;7.70;;
68653;SDS011;55636;51.108;13.622;2023-05-23T05:40:25;10.38;;;8.25;;
68653;SDS011;55636;51.108;13.622;2023-05-23T05:41:28;9.07;;;8.15;;
68653;SDS011;55636;51.108;13.622;2023-05-23T05:42:31;8.80;;;8.00;;
68653;SDS011;55636;51.108;13.622;2023-05-23T05:43:34;9.70;;;8.77;;
68653;SDS011;55636;51.108;13.622;2023-05-23T05:44:37;9.73;;;8.50;;
68653;SDS011;55636;51.108;13.622;2023-05-23T05:45:39;9.98;;;9.00;;
68653;SDS011;55636;51.108;13.622;2023-05-23T05:46:41;10.00;;;9.10;;
68653;SDS011;55636;51.108;13.622;2023-05-23T05:47:46;10.00;;;9.02;;
68653;SDS011;55636;51.108;13.622;2023-05-23T05:48:49;9.88;;;8.57;;
68653;SDS011;55636;51.108;13.622;2023-05-23T05:49:52;9.68;;;8.60;;
68653;SDS011;55636;51.108;13.622;2023-05-23T05:50:54;10.02;;;8.93;;
68653;SDS011;55636;51.108;13.622;2023-05-23T05:51:57;9.52;;;8.63;;
68653;SDS011;55636;51.108;13.622;2023-05-23T05:52:59;10.23;;;9.23;;
68653;SDS011;55636;51.108;13.622;2023-05-23T05:54:02;9.63;;;8.70;;
68653;SDS011;55636;51.108;13.622;2023-05-23T05:55:06;9.50;;;8.65;;
68653;SDS011;55636;51.108;13.622;2023-05-23T05:56:19;10.57;;;9.48;;
68653;SDS011;55636;51.108;13.622;2023-05-23T05:57:22;9.80;;;8.90;;
68653;SDS011;55636;51.108;13.622;2023-05-23T05:58:24;10.20;;;9.30;;
68653;SDS011;55636;51.108;13.622;2023-05-23T05:59:39;10.65;;;9.52;;
68653;SDS011;55636;51.108;13.622;2023-05-23T06:00:42;10.80;;;9.80;;
68653;SDS011;55636;51.108;13.622;2023-05-23T06:01:45;10.95;;;9.77;;
68653;SDS011;55636;51.108;13.622;2023-05-23T06:02:47;11.15;;;10.00;;
68653;SDS011;55636;51.108;13.622;2023-05-23T06:04:15;10.50;;;9.50;;
68653;SDS011;55636;51.108;13.622;2023-05-23T06:05:18;10.93;;;9.60;;
68653;SDS011;55636;51.108;13.622;2023-05-23T06:06:22;11.27;;;10.18;;
68653;SDS011;55636;51.108;13.622;2023-05-23T06:07:24;11.73;;;10.00;;
68653;SDS011;55636;51.108;13.622;2023-05-23T06:08:27;10.82;;;9.70;;
68653;SDS011;55636;51.108;13.622;2023-05-23T06:09:29;13.52;;;10.35;;
68653;SDS011;55636;51.108;13.622;2023-05-23T06:10:32;11.88;;;10.77;;
68653;SDS011;55636;51.108;13.622;2023-05-23T06:11:35;11.63;;;9.98;;
68653;SDS011;55636;51.108;13.622;2023-05-23T06:12:42;11.15;;;10.15;;
68653;SDS011;55636;51.108;13.622;2023-05-23T06:13:44;11.05;;;9.95;;
68653;SDS011;55636;51.108;13.622;2023-05-23T06:14:47;10.98;;;9.85;;
68653;SDS011;55636;51.108;13.622;2023-05-23T06:15:50;10.95;;;9.95;;
68653;SDS011;55636;51.108;13.622;2023-05-23T06:16:53;10.70;;;9.70;;
68653;SDS011;55636;51.108;13.622;2023-05-23T06:17:55;10.73;;;9.63;;
68653;SDS011;55636;51.108;13.622;2023-05-23T06:18:58;11.25;;;10.13;;
68653;SDS011;55636;51.108;13.622;2023-05-23T06:20:03;11.23;;;10.10;;
68653;SDS011;55636;51.108;13.622;2023-05-23T06:21:07;11.25;;;10.13;;
68653;SDS011;55636;51.108;13.622;2023-05-23T06:22:10;10.90;;;9.90;;
68653;SDS011;55636;51.108;13.622;2023-05-23T06:23:13;11.98;;;10.32;;
68653;SDS011;55636;51.108;13.622;2023-05-23T06:24:15;11.52;;;10.40;;
68653;SDS011;55636;51.108;13.622;2023-05-23T06:25:18;11.63;;;10.52;;
68653;SDS011;55636;51.108;13.622;2023-05-23T06:26:21;12.15;;;11.00;;